Time;durP1;ratioP1;P1;durP2;ratioP2;P2;SDS_P1;SDS_P2;PMS_P1;PMS_P2;Temp;Humidity;BMP_temperature;BMP_pressure;BME280_temperature;BME280_humidity;BME280_pressure;Samples;Min_cycle;Max_cycle;Signal;HPM_P1;HPM_P2
2021/11/17 02:27:48;;;;;;;;;;;4.10;99.90;;;;;;5091288;28;19970;-76
2021/11/17 02:30:23;;;;;;;;;;;4.10;99.90;;;;;;5090847;28;19912;-78
2021/11/17 02:33:07;;;;;;;;;;;4.10;99.90;;;;;;5055892;28;19914;-76
2021/11/17 02:35:36;;;;;;;;;;;4.10;99.90;;;;;;5091233;28;20361;-75
2021/11/17 02:38:13;;;;;;;;;;;4.10;99.90;;;;;;5072893;28;20366;-76
2021/11/17 02:40:45;;;;;;;;;;;4.10;99.90;;;;;;5067132;28;20341;-76
2021/11/17 02:43:11;;;;;;;;;;;4.10;99.90;;;;;;5084837;28;20278;-76
2021/11/17 02:45:39;;;;;;;;;;;4.10;99.90;;;;;;5084341;28;19912;-77
2021/11/17 02:48:11;;;;;;;;;;;4.10;99.90;;;;;;5084676;28;19994;-76
2021/11/17 02:50:39;;;;;;;;;;;4.00;99.90;;;;;;5084648;28;20285;-77
2021/11/17 02:53:23;;;;;;;;;;;4.10;99.90;;;;;;5091011;28;19908;-76
2021/11/17 02:55:48;;;;;;;;;;;4.10;99.90;;;;;;5090970;28;20435;-76
2021/11/17 02:58:33;;;;;;;;;;;4.10;99.90;;;;;;5090940;28;19959;-75
2021/11/17 03:01:17;;;;;;;;;;;4.10;99.90;;;;;;5072260;28;19958;-75
2021/11/17 03:03:45;;;;;;;;;;;4.00;99.90;;;;;;5090911;28;19964;-77
2021/11/17 03:06:16;;;;;;;;;;;4.00;99.90;;;;;;5090949;28;20370;-76
2021/11/17 03:08:55;;;;;;;;;;;4.00;99.90;;;;;;5070505;28;19912;-75
2021/11/17 03:11:33;;;;;;;;;;;4.00;99.90;;;;;;5064822;28;19955;-77
2021/11/17 03:14:05;;;;;;;;;;;4.00;99.90;;;;;;5090940;28;19934;-76
2021/11/17 03:16:37;;;;;;;;;;;4.00;99.90;;;;;;5090699;28;19916;-77
2021/11/17 03:19:03;;;;;;;;;;;4.00;99.90;;;;;;5090893;28;20318;-75
2021/11/17 03:21:34;;;;;;;;;;;4.00;99.90;;;;;;5090859;28;19915;-76
2021/11/17 03:24:05;;;;;;;;;;;4.00;99.90;;;;;;5090742;28;19959;-75
2021/11/17 03:26:31;;;;;;;;;;;4.00;99.90;;;;;;5072571;28;19909;-75
2021/11/17 03:29:00;;;;;;;;;;;4.00;99.90;;;;;;5090808;28;20374;-75
2021/11/17 03:31:47;;;;;;;;;;;4.00;99.90;;;;;;5090320;28;19915;-76
2021/11/17 03:34:37;;;;;;;;;;;4.00;99.90;;;;;;5055999;28;19994;-75
2021/11/17 03:37:03;;;;;;;;;;;4.00;99.90;;;;;;5090729;28;19912;-75
2021/11/17 03:39:34;;;;;;;;;;;4.00;99.90;;;;;;5088237;28;19934;-76
2021/11/17 03:42:22;;;;;;;;;;;4.00;99.90;;;;;;5089836;28;19909;-76
2021/11/17 03:44:48;;;;;;;;;;;4.00;99.90;;;;;;5089849;28;19916;-76
2021/11/17 03:47:28;;;;;;;;;;;4.00;99.90;;;;;;5090540;28;19961;-75
2021/11/17 03:50:12;;;;;;;;;;;3.90;99.90;;;;;;5090116;28;19908;-76
2021/11/17 03:52:40;;;;;;;;;;;4.00;99.90;;;;;;5094428;28;20334;-77
2021/11/17 03:55:24;;;;;;;;;;;3.90;99.90;;;;;;5093943;28;19912;-75
2021/11/17 03:57:56;;;;;;;;;;;3.90;99.90;;;;;;5094049;28;19950;-76
2021/11/17 04:00:24;;;;;;;;;;;3.90;99.90;;;;;;5093701;28;20385;-76
2021/11/17 04:02:50;;;;;;;;;;;3.90;99.90;;;;;;5093985;28;19908;-77
2021/11/17 04:05:28;;;;;;;;;;;3.90;99.90;;;;;;5093887;28;19938;-76
2021/11/17 04:07:57;;;;;;;;;;;3.90;99.90;;;;;;5075904;28;20002;-78
2021/11/17 04:10:28;;;;;;;;;;;3.80;99.90;;;;;;5085235;28;19916;-76
2021/11/17 04:13:00;;;;;;;;;;;3.80;99.90;;;;;;5093815;28;20352;-77
2021/11/17 04:15:45;;;;;;;;;;;3.80;99.90;;;;;;5093799;28;19908;-75
2021/11/17 04:18:11;;;;;;;;;;;3.80;99.90;;;;;;5093081;28;20362;-75
2021/11/17 04:20:46;;;;;;;;;;;3.80;99.90;;;;;;5093181;28;19953;-77
2021/11/17 04:23:27;;;;;;;;;;;3.80;99.90;;;;;;5058866;28;19931;-75
2021/11/17 04:25:52;;;;;;;;;;;3.80;99.90;;;;;;5093629;28;20395;-75
2021/11/17 04:28:24;;;;;;;;;;;3.80;99.90;;;;;;5093394;28;20129;-75
2021/11/17 04:30:52;;;;;;;;;;;3.80;99.90;;;;;;5093194;28;20355;-76
2021/11/17 04:33:26;;;;;;;;;;;3.80;99.90;;;;;;5093421;28;19931;-75
2021/11/17 04:35:55;;;;;;;;;;;3.80;99.90;;;;;;5093441;28;19908;-75
2021/11/17 04:38:20;;;;;;;;;;;3.80;99.90;;;;;;5092679;28;19908;-75
2021/11/17 04:40:49;;;;;;;;;;;3.80;99.90;;;;;;5086794;28;19909;-75
2021/11/17 04:43:17;;;;;;;;;;;3.80;99.90;;;;;;5091389;28;19944;-75
2021/11/17 04:45:42;;;;;;;;;;;3.80;99.90;;;;;;5093105;28;19912;-75
2021/11/17 04:48:08;;;;;;;;;;;3.80;99.90;;;;;;5093139;28;19915;-76
2021/11/17 04:50:43;;;;;;;;;;;3.80;99.90;;;;;;5092665;28;19959;-76
2021/11/17 04:53:14;;;;;;;;;;;3.80;99.90;;;;;;5093007;28;19920;-75
2021/11/17 04:55:46;;;;;;;;;;;3.80;99.90;;;;;;5092871;28;19919;-76
2021/11/17 04:58:30;;;;;;;;;;;3.80;99.90;;;;;;5074706;28;19908;-78
2021/11/17 05:01:05;;;;;;;;;;;3.80;99.90;;;;;;5092396;28;20294;-76
2021/11/17 05:03:30;;;;;;;;;;;3.80;99.90;;;;;;5073612;28;19908;-75
2021/11/17 05:06:14;;;;;;;;;;;3.80;99.90;;;;;;5092577;28;19919;-77
2021/11/17 05:08:58;;;;;;;;;;;3.80;99.90;;;;;;5092329;28;19962;-76
2021/11/17 05:11:39;;;;;;;;;;;3.80;99.90;;;;;;5087384;28;19931;-75
2021/11/17 05:14:31;;;;;;;;;;;3.80;99.90;;;;;;5092454;28;20412;-76
2021/11/17 05:17:02;;;;;;;;;;;3.80;99.90;;;;;;5087370;28;19944;-76
2021/11/17 05:19:30;;;;;;;;;;;3.80;99.90;;;;;;5092343;28;19908;-76
2021/11/17 05:22:11;;;;;;;;;;;3.80;99.90;;;;;;5092442;28;19908;-78
2021/11/17 05:24:48;;;;;;;;;;;3.80;99.90;;;;;;5092111;28;19912;-76
2021/11/17 05:27:32;;;;;;;;;;;3.80;99.90;;;;;;5092369;28;20381;-77
2021/11/17 05:30:04;;;;;;;;;;;3.80;99.90;;;;;;5091874;28;20015;-78
2021/11/17 05:32:47;;;;;;;;;;;3.80;99.90;;;;;;5092260;28;19908;-75
2021/11/17 05:35:13;;;;;;;;;;;3.80;99.90;;;;;;5092142;28;19923;-76
2021/11/17 05:37:47;;;;;;;;;;;3.80;99.90;;;;;;5073839;28;19914;-78
2021/11/17 05:40:22;;;;;;;;;;;3.80;99.90;;;;;;5065437;28;19908;-75
2021/11/17 05:43:00;;;;;;;;;;;3.80;99.90;;;;;;5085745;28;20386;-76
2021/11/17 05:45:37;;;;;;;;;;;3.80;99.90;;;;;;5091719;28;19916;-75
2021/11/17 05:48:06;;;;;;;;;;;3.70;99.90;;;;;;5091787;28;20406;-76
2021/11/17 05:50:31;;;;;;;;;;;3.70;99.90;;;;;;5090797;28;19912;-76
2021/11/17 05:52:59;;;;;;;;;;;3.60;99.90;;;;;;5087637;28;19916;-78
2021/11/17 05:55:28;;;;;;;;;;;3.60;99.90;;;;;;5072434;28;19908;-76
2021/11/17 05:57:56;;;;;;;;;;;3.70;99.90;;;;;;5085113;28;19912;-76
2021/11/17 06:00:28;;;;;;;;;;;3.60;99.90;;;;;;5086348;28;19908;-75
2021/11/17 06:03:05;;;;;;;;;;;3.70;99.90;;;;;;5087386;28;19912;-78
2021/11/17 06:05:31;;;;;;;;;;;3.70;99.90;;;;;;5067492;28;20183;-75
2021/11/17 06:07:56;;;;;;;;;;;3.80;99.90;;;;;;5091225;28;20572;-75
2021/11/17 06:10:42;;;;;;;;;;;3.80;99.90;;;;;;5087381;28;19923;-75
2021/11/17 06:13:09;;;;;;;;;;;3.80;99.90;;;;;;5090738;28;19908;-75
2021/11/17 06:15:36;;;;;;;;;;;3.80;99.90;;;;;;5091355;28;19912;-75
2021/11/17 06:18:03;;;;;;;;;;;3.80;99.90;;;;;;5090741;28;19919;-78
2021/11/17 06:20:29;;;;;;;;;;;3.80;99.90;;;;;;5090797;28;19915;-75
2021/11/17 06:22:55;;;;;;;;;;;3.80;99.90;;;;;;5091127;28;19908;-76
2021/11/17 06:25:21;;;;;;;;;;;3.70;99.90;;;;;;5090876;28;19920;-75
2021/11/17 06:27:59;;;;;;;;;;;3.70;99.90;;;;;;5091422;28;20278;-75
2021/11/17 06:30:25;;;;;;;;;;;3.70;99.90;;;;;;5089751;28;19919;-76
2021/11/17 06:32:51;;;;;;;;;;;3.70;99.90;;;;;;5086383;28;20292;-76
2021/11/17 06:35:17;;;;;;;;;;;3.70;99.90;;;;;;5090424;28;19914;-75
2021/11/17 06:37:43;;;;;;;;;;;3.70;99.90;;;;;;5090166;28;19908;-76
2021/11/17 06:40:13;;;;;;;;;;;3.70;99.90;;;;;;5088588;28;19909;-76
2021/11/17 06:42:52;;;;;;;;;;;3.70;99.90;;;;;;5089259;28;19909;-76
2021/11/17 06:45:22;;;;;;;;;;;3.80;99.90;;;;;;5090340;28;19959;-78
2021/11/17 06:47:48;;;;;;;;;;;3.80;99.90;;;;;;5090069;28;19915;-75
2021/11/17 06:50:14;;;;;;;;;;;3.80;99.90;;;;;;5089688;28;20030;-75
2021/11/17 06:52:40;;;;;;;;;;;3.80;99.90;;;;;;5089587;28;20395;-76
2021/11/17 06:55:06;;;;;;;;;;;3.80;99.90;;;;;;5090224;28;19919;-75
2021/11/17 06:57:32;;;;;;;;;;;3.80;99.90;;;;;;5090149;28;19909;-76
2021/11/17 06:59:57;;;;;;;;;;;3.80;99.90;;;;;;5089828;28;19939;-75
2021/11/17 07:02:23;;;;;;;;;;;3.80;99.90;;;;;;5086398;28;20430;-77
2021/11/17 07:04:48;;;;;;;;;;;3.90;99.90;;;;;;5088375;28;20914;-77
2021/11/17 07:07:14;;;;;;;;;;;3.90;99.90;;;;;;5086852;28;19908;-75
2021/11/17 07:09:40;;;;;;;;;;;3.90;99.90;;;;;;5082177;28;20410;-77
2021/11/17 07:12:06;;;;;;;;;;;3.90;99.90;;;;;;5084014;28;19919;-76
2021/11/17 07:14:32;;;;;;;;;;;3.90;99.90;;;;;;5087048;28;19908;-76
2021/11/17 07:16:58;;;;;;;;;;;3.90;99.90;;;;;;5071690;28;19908;-76
2021/11/17 07:19:26;;;;;;;;;;;3.90;99.90;;;;;;5090539;28;19920;-76
2021/11/17 07:21:53;;;;;;;;;;;3.80;99.90;;;;;;5090199;28;20316;-76
2021/11/17 07:24:18;;;;;;;;;;;3.80;99.90;;;;;;5089990;28;20359;-76
2021/11/17 07:26:44;;;;;;;;;;;3.90;99.90;;;;;;5088503;28;19920;-76
2021/11/17 07:29:09;;;;;;;;;;;3.90;99.90;;;;;;5094224;28;19920;-76
2021/11/17 07:31:35;;;;;;;;;;;4.00;99.90;;;;;;5093356;28;20515;-75
2021/11/17 07:34:01;;;;;;;;;;;4.00;99.90;;;;;;5093640;28;19912;-76
2021/11/17 07:36:26;;;;;;;;;;;4.00;99.90;;;;;;5093768;28;20006;-75
2021/11/17 07:38:52;;;;;;;;;;;4.00;99.90;;;;;;5091193;28;19908;-76
2021/11/17 07:41:17;;;;;;;;;;;3.90;99.90;;;;;;5088770;28;19908;-78
2021/11/17 07:43:43;;;;;;;;;;;3.90;99.90;;;;;;5075254;28;19912;-75
2021/11/17 07:46:08;;;;;;;;;;;3.90;99.90;;;;;;5091273;28;19913;-76
2021/11/17 07:48:34;;;;;;;;;;;3.90;99.90;;;;;;5090569;28;19912;-76
2021/11/17 07:51:00;;;;;;;;;;;3.90;99.90;;;;;;5085870;28;19909;-75
2021/11/17 07:53:26;;;;;;;;;;;3.90;99.90;;;;;;5070902;28;20049;-75
2021/11/17 07:55:52;;;;;;;;;;;3.90;99.90;;;;;;5093862;28;20362;-75
2021/11/17 07:58:19;;;;;;;;;;;3.90;99.90;;;;;;5089653;28;20378;-76
2021/11/17 08:00:48;;;;;;;;;;;3.90;99.90;;;;;;5067414;28;19942;-76
2021/11/17 08:03:14;;;;;;;;;;;4.00;99.90;;;;;;5087862;28;20355;-76
2021/11/17 08:05:40;;;;;;;;;;;4.00;99.90;;;;;;5081972;28;19912;-76
2021/11/17 08:08:05;;;;;;;;;;;4.00;99.90;;;;;;5090331;28;19956;-76
2021/11/17 08:10:33;;;;;;;;;;;4.00;99.90;;;;;;5068801;28;19947;-76
2021/11/17 08:12:59;;;;;;;;;;;4.00;99.90;;;;;;5091745;28;19919;-76
2021/11/17 08:15:24;;;;;;;;;;;4.10;99.90;;;;;;5086329;28;19956;-76
2021/11/17 08:17:50;;;;;;;;;;;4.10;99.90;;;;;;5091638;28;20322;-76
2021/11/17 08:20:18;;;;;;;;;;;4.10;99.90;;;;;;5087107;28;19908;-76
2021/11/17 08:22:45;;;;;;;;;;;4.20;99.90;;;;;;5091403;28;19919;-76
2021/11/17 08:25:11;;;;;;;;;;;4.10;99.90;;;;;;5084228;28;19913;-76
2021/11/17 08:27:37;;;;;;;;;;;4.20;99.90;;;;;;5070008;28;19952;-76
2021/11/17 08:30:03;;;;;;;;;;;4.10;99.90;;;;;;5086118;28;20012;-76
2021/11/17 08:32:29;;;;;;;;;;;4.20;99.90;;;;;;5087422;28;19909;-76
2021/11/17 08:34:55;;;;;;;;;;;4.30;99.90;;;;;;5084162;28;19908;-76
2021/11/17 08:37:20;;;;;;;;;;;4.40;99.90;;;;;;5088198;28;20083;-76
2021/11/17 08:39:48;;;;;;;;;;;4.50;99.90;;;;;;5086891;28;19947;-76
2021/11/17 08:42:14;;;;;;;;;;;4.40;99.90;;;;;;5082105;28;19912;-76
2021/11/17 08:44:40;;;;;;;;;;;4.30;99.90;;;;;;5080377;28;20432;-76
2021/11/17 08:47:10;;;;;;;;;;;4.40;99.90;;;;;;5088566;28;20220;-76
2021/11/17 08:49:36;;;;;;;;;;;4.30;99.90;;;;;;5084843;28;19908;-77
2021/11/17 08:52:01;;;;;;;;;;;4.30;99.90;;;;;;5088198;28;19915;-79
2021/11/17 08:54:27;;;;;;;;;;;4.30;99.90;;;;;;5090755;28;20106;-76
2021/11/17 08:56:52;;;;;;;;;;;4.40;99.90;;;;;;5091086;28;19908;-76
2021/11/17 08:59:18;;;;;;;;;;;4.30;99.90;;;;;;5088638;28;19919;-76
2021/11/17 09:01:43;;;;;;;;;;;4.20;99.90;;;;;;5082369;28;20351;-79
2021/11/17 09:04:09;;;;;;;;;;;4.20;99.90;;;;;;5079420;28;19916;-76
2021/11/17 09:06:36;;;;;;;;;;;4.20;99.90;;;;;;5088806;28;19957;-76
2021/11/17 09:09:04;;;;;;;;;;;4.10;99.90;;;;;;5089895;28;19973;-76
2021/11/17 09:11:31;;;;;;;;;;;4.20;99.90;;;;;;5088526;28;20326;-78
2021/11/17 09:13:56;;;;;;;;;;;4.20;99.90;;;;;;5090260;28;20042;-76
2021/11/17 09:16:22;;;;;;;;;;;4.20;99.90;;;;;;5086101;28;20386;-80
2021/11/17 09:18:50;;;;;;;;;;;4.20;99.90;;;;;;5090391;28;19908;-76
2021/11/17 09:21:17;;;;;;;;;;;4.20;99.90;;;;;;5088627;28;19908;-76
2021/11/17 09:23:43;;;;;;;;;;;4.30;99.90;;;;;;5088854;28;19908;-77
2021/11/17 09:26:09;;;;;;;;;;;4.30;99.90;;;;;;5088142;28;20297;-74
2021/11/17 09:28:35;;;;;;;;;;;4.30;99.90;;;;;;5073951;28;20387;-75
2021/11/17 09:31:01;;;;;;;;;;;4.40;99.90;;;;;;5090741;28;19955;-74
2021/11/17 09:33:28;;;;;;;;;;;4.50;99.90;;;;;;5087715;28;19999;-74
2021/11/17 09:35:54;;;;;;;;;;;4.70;99.90;;;;;;5081342;28;19912;-74
2021/11/17 09:38:19;;;;;;;;;;;4.70;99.90;;;;;;5086173;28;20317;-74
2021/11/17 09:40:47;;;;;;;;;;;4.60;99.90;;;;;;5076106;28;19954;-74
2021/11/17 09:43:14;;;;;;;;;;;4.50;99.90;;;;;;5087873;28;19908;-74
2021/11/17 09:45:41;;;;;;;;;;;4.50;99.90;;;;;;5086671;28;20366;-74
2021/11/17 09:48:10;;;;;;;;;;;4.50;99.90;;;;;;5080935;28;19915;-75
2021/11/17 09:50:37;;;;;;;;;;;4.50;99.90;;;;;;5081749;28;19912;-74
2021/11/17 09:53:08;;;;;;;;;;;4.40;99.90;;;;;;5083544;28;19912;-74
2021/11/17 09:55:52;;;;;;;;;;;4.40;99.90;;;;;;5086733;28;19912;-74
2021/11/17 09:58:30;;;;;;;;;;;4.40;99.90;;;;;;5066687;28;19951;-74
2021/11/17 10:00:58;;;;;;;;;;;4.50;99.90;;;;;;5087039;28;19908;-75
2021/11/17 10:03:42;;;;;;;;;;;4.60;99.90;;;;;;5084687;28;20318;-74
2021/11/17 10:11:36;;;;;;;;;;;4.30;99.90;;;;;;5082691;28;19920;-75
2021/11/17 10:14:11;;;;;;;;;;;4.50;99.90;;;;;;5084740;28;20248;-74
2021/11/17 10:16:38;;;;;;;;;;;4.50;99.90;;;;;;5054008;28;19916;-75
2021/11/17 10:19:12;;;;;;;;;;;4.50;99.90;;;;;;5079494;28;19920;-75
2021/11/17 10:21:38;;;;;;;;;;;4.40;99.90;;;;;;5077734;28;19908;-74
2021/11/17 10:24:09;;;;;;;;;;;4.40;99.90;;;;;;5089575;28;20346;-74
2021/11/17 10:26:36;;;;;;;;;;;4.50;99.90;;;;;;5067752;28;19922;-74
2021/11/17 10:29:22;;;;;;;;;;;4.50;99.90;;;;;;5088692;28;19966;-74
2021/11/17 10:31:50;;;;;;;;;;;4.40;99.90;;;;;;5078358;28;19909;-75
2021/11/17 10:34:25;;;;;;;;;;;4.60;99.90;;;;;;5075401;28;19908;-75
2021/11/17 10:36:53;;;;;;;;;;;4.70;99.90;;;;;;5059671;28;19958;-76
2021/11/17 10:39:18;;;;;;;;;;;4.80;99.90;;;;;;5082989;28;20371;-76
2021/11/17 10:42:05;;;;;;;;;;;4.90;99.90;;;;;;5077395;28;19909;-76
2021/11/17 10:44:33;;;;;;;;;;;4.80;99.90;;;;;;5076357;28;19912;-76
2021/11/17 10:47:00;;;;;;;;;;;4.70;99.90;;;;;;5074219;28;19995;-76
2021/11/17 10:49:29;;;;;;;;;;;4.80;99.90;;;;;;5073394;28;19916;-76
2021/11/17 10:51:57;;;;;;;;;;;4.70;99.90;;;;;;5069546;28;20350;-75
2021/11/17 10:54:26;;;;;;;;;;;4.70;99.90;;;;;;5082360;28;19908;-75
2021/11/17 10:57:27;;;;;;;;;;;4.80;99.90;;;;;;5074738;28;19909;-76
2021/11/17 10:59:54;;;;;;;;;;;4.90;99.90;;;;;;5011704;28;20491;-75
2021/11/17 11:02:21;;;;;;;;;;;5.00;99.90;;;;;;5072142;28;19912;-75
2021/11/17 11:04:58;;;;;;;;;;;5.00;99.90;;;;;;5087139;28;19916;-75
2021/11/17 11:07:36;;;;;;;;;;;4.90;99.90;;;;;;5082507;28;20002;-75
2021/11/17 11:10:01;;;;;;;;;;;4.90;99.90;;;;;;5082440;28;19913;-75
2021/11/17 11:12:29;;;;;;;;;;;5.00;99.90;;;;;;5075635;28;19908;-75
2021/11/17 11:14:57;;;;;;;;;;;5.10;99.90;;;;;;5087711;28;19978;-75
2021/11/17 11:17:24;;;;;;;;;;;5.10;99.90;;;;;;5093237;28;19943;-75
2021/11/17 11:19:50;;;;;;;;;;;5.10;99.90;;;;;;5094500;28;19908;-74
2021/11/17 11:22:23;;;;;;;;;;;4.90;99.90;;;;;;5076639;28;20278;-75
2021/11/17 11:24:50;;;;;;;;;;;4.90;99.90;;;;;;5094742;28;19958;-74
2021/11/17 11:27:36;;;;;;;;;;;4.90;99.90;;;;;;5094931;28;19919;-75
2021/11/17 11:30:02;;;;;;;;;;;5.10;99.90;;;;;;5074560;28;20354;-75
2021/11/17 11:32:27;;;;;;;;;;;5.40;99.90;;;;;;5087610;28;19999;-75
2021/11/17 11:34:59;;;;;;;;;;;5.40;99.90;;;;;;5094572;28;20108;-75
2021/11/17 11:37:24;;;;;;;;;;;5.50;99.90;;;;;;5094417;28;19912;-75
2021/11/17 11:39:54;;;;;;;;;;;5.40;99.90;;;;;;5072907;28;19934;-75
2021/11/17 11:42:39;;;;;;;;;;;5.20;99.90;;;;;;5087796;28;20370;-75
2021/11/17 11:45:07;;;;;;;;;;;5.10;99.90;;;;;;5083649;28;19939;-75
2021/11/17 11:47:53;;;;;;;;;;;5.10;99.90;;;;;;5093655;28;19955;-75
2021/11/17 11:50:31;;;;;;;;;;;5.10;99.90;;;;;;5089160;28;19912;-75
2021/11/17 11:53:02;;;;;;;;;;;5.10;99.90;;;;;;5076079;28;20370;-75
2021/11/17 11:55:48;;;;;;;;;;;5.20;99.90;;;;;;5094277;28;19954;-75
2021/11/17 11:58:20;;;;;;;;;;;5.20;99.90;;;;;;5075807;28;19958;-75
2021/11/17 12:00:48;;;;;;;;;;;5.20;99.90;;;;;;5075663;28;19909;-75
2021/11/17 12:03:14;;;;;;;;;;;5.10;99.90;;;;;;5094169;28;20097;-75
2021/11/17 12:05:40;;;;;;;;;;;5.10;99.90;;;;;;5094172;28;19912;-75
2021/11/17 12:08:23;;;;;;;;;;;5.10;99.90;;;;;;5075974;28;19908;-75
2021/11/17 12:10:48;;;;;;;;;;;5.10;99.90;;;;;;5087817;28;20323;-74
2021/11/17 12:13:17;;;;;;;;;;;5.10;99.90;;;;;;5093066;28;20023;-75
2021/11/17 12:16:01;;;;;;;;;;;5.10;99.90;;;;;;5073586;28;19908;-75
2021/11/17 12:18:26;;;;;;;;;;;5.10;99.90;;;;;;5071274;28;19908;-75
2021/11/17 12:20:58;;;;;;;;;;;5.10;99.90;;;;;;5094166;28;19909;-75
2021/11/17 12:23:27;;;;;;;;;;;4.90;99.90;;;;;;5093757;28;20010;-75
2021/11/17 12:26:01;;;;;;;;;;;5.10;99.90;;;;;;5094207;28;19912;-75
2021/11/17 12:28:27;;;;;;;;;;;5.10;99.90;;;;;;5093700;28;19965;-75
2021/11/17 12:30:59;;;;;;;;;;;5.10;99.90;;;;;;5090436;28;19915;-75
2021/11/17 12:33:27;;;;;;;;;;;5.10;99.90;;;;;;5071099;28;19908;-75
2021/11/17 12:36:19;;;;;;;;;;;5.10;99.90;;;;;;5090893;28;19912;-75
2021/11/17 12:38:46;;;;;;;;;;;5.10;99.90;;;;;;5053428;28;19934;-75
2021/11/17 12:41:17;;;;;;;;;;;5.00;99.90;;;;;;5083149;28;20351;-75
2021/11/17 12:43:45;;;;;;;;;;;4.90;99.90;;;;;;5093301;28;19950;-75
2021/11/17 12:46:22;;;;;;;;;;;4.70;99.90;;;;;;5092892;28;19934;-75
2021/11/17 12:48:52;;;;;;;;;;;4.70;99.90;;;;;;5093324;28;20267;-74
2021/11/17 12:51:20;;;;;;;;;;;4.60;99.90;;;;;;5086641;28;19908;-75
2021/11/17 12:53:48;;;;;;;;;;;4.70;99.90;;;;;;5092602;28;19937;-75
2021/11/17 12:56:23;;;;;;;;;;;4.60;99.90;;;;;;5075051;28;19955;-75
2021/11/17 12:58:56;;;;;;;;;;;4.70;99.90;;;;;;5092729;28;19908;-75
2021/11/17 13:01:25;;;;;;;;;;;4.80;99.90;;;;;;5084962;28;19920;-74
2021/11/17 13:03:50;;;;;;;;;;;4.80;99.90;;;;;;5087570;28;20295;-75
2021/11/17 13:06:19;;;;;;;;;;;4.80;99.90;;;;;;5074795;28;19916;-74
2021/11/17 13:08:45;;;;;;;;;;;4.80;99.90;;;;;;5090675;28;20005;-75
2021/11/17 13:11:14;;;;;;;;;;;4.90;99.90;;;;;;5091986;28;20005;-75
2021/11/17 13:13:51;;;;;;;;;;;4.80;99.90;;;;;;5089866;28;19912;-75
2021/11/17 13:16:19;;;;;;;;;;;4.80;99.90;;;;;;5085436;28;19909;-74
2021/11/17 13:18:45;;;;;;;;;;;4.90;99.90;;;;;;5088985;28;19916;-75
2021/11/17 13:21:17;;;;;;;;;;;4.90;99.90;;;;;;5091912;28;19912;-75
2021/11/17 13:23:47;;;;;;;;;;;5.00;99.90;;;;;;5102719;28;19916;-75
2021/11/17 13:26:19;;;;;;;;;;;4.90;99.90;;;;;;5088147;28;19912;-75
2021/11/17 13:28:46;;;;;;;;;;;4.90;99.90;;;;;;5103438;28;19953;-74
2021/11/17 13:31:23;;;;;;;;;;;4.90;99.90;;;;;;5092097;28;19908;-75
2021/11/17 13:34:18;;;;;;;;;;;4.90;99.90;;;;;;5092470;28;20371;-75
2021/11/17 13:36:48;;;;;;;;;;;4.90;99.90;;;;;;5070179;28;19916;-74
2021/11/17 13:39:16;;;;;;;;;;;4.90;99.90;;;;;;5091842;28;20320;-74
2021/11/17 13:41:43;;;;;;;;;;;4.90;99.90;;;;;;5091533;28;19912;-75
2021/11/17 13:44:10;;;;;;;;;;;4.90;99.90;;;;;;5092369;28;19916;-74
2021/11/17 13:46:36;;;;;;;;;;;4.80;99.90;;;;;;5091916;28;19965;-75
2021/11/17 13:49:03;;;;;;;;;;;4.90;99.90;;;;;;5072213;28;20431;-76
2021/11/17 13:51:28;;;;;;;;;;;4.90;99.90;;;;;;5085249;28;20401;-76
2021/11/17 13:53:54;;;;;;;;;;;4.90;99.90;;;;;;5069723;28;19908;-76
2021/11/17 13:56:24;;;;;;;;;;;4.90;99.90;;;;;;5074090;28;20305;-76
2021/11/17 13:58:50;;;;;;;;;;;4.90;99.90;;;;;;5091717;28;19912;-76
2021/11/17 14:01:16;;;;;;;;;;;4.80;99.90;;;;;;5091198;28;20248;-76
2021/11/17 14:03:41;;;;;;;;;;;4.80;99.90;;;;;;5091571;28;19912;-78
2021/11/17 14:06:08;;;;;;;;;;;4.90;99.90;;;;;;5091773;28;19919;-75
2021/11/17 14:08:34;;;;;;;;;;;4.90;99.90;;;;;;5089461;28;19982;-76
2021/11/17 14:11:00;;;;;;;;;;;4.80;99.90;;;;;;5080408;28;20371;-75
2021/11/17 14:13:26;;;;;;;;;;;4.90;99.90;;;;;;5088596;28;19908;-77
2021/11/17 14:15:52;;;;;;;;;;;4.90;99.90;;;;;;5080813;28;20382;-76
2021/11/17 14:18:18;;;;;;;;;;;4.90;99.90;;;;;;5091446;28;19939;-76
2021/11/17 14:20:45;;;;;;;;;;;4.80;99.90;;;;;;5072941;28;19912;-76
2021/11/17 14:23:11;;;;;;;;;;;4.80;99.90;;;;;;5091516;28;19908;-76
2021/11/17 14:25:37;;;;;;;;;;;4.90;99.90;;;;;;5091277;28;20321;-76
2021/11/17 14:28:04;;;;;;;;;;;4.90;99.90;;;;;;5091548;28;20008;-76
2021/11/17 14:30:40;;;;;;;;;;;4.90;99.90;;;;;;5090739;28;20278;-78
2021/11/17 14:33:06;;;;;;;;;;;5.10;99.90;;;;;;5091425;28;19909;-76
2021/11/17 14:35:32;;;;;;;;;;;5.20;99.90;;;;;;5091111;28;20290;-78
2021/11/17 14:38:00;;;;;;;;;;;5.20;99.90;;;;;;5091345;28;19915;-76
2021/11/17 14:40:26;;;;;;;;;;;5.10;99.90;;;;;;5086941;28;19908;-75
2021/11/17 14:42:51;;;;;;;;;;;5.10;99.90;;;;;;5085509;28;20274;-76
2021/11/17 14:45:19;;;;;;;;;;;5.00;99.90;;;;;;5091093;28;19912;-76
2021/11/17 14:47:45;;;;;;;;;;;5.00;99.90;;;;;;5091079;28;19919;-75
2021/11/17 14:50:10;;;;;;;;;;;5.00;99.90;;;;;;5089755;28;20290;-76
2021/11/17 14:52:38;;;;;;;;;;;4.90;99.90;;;;;;5081552;28;20274;-75
2021/11/17 14:55:05;;;;;;;;;;;4.90;99.90;;;;;;5072861;28;19935;-76
2021/11/17 14:57:30;;;;;;;;;;;4.90;99.90;;;;;;5090725;28;20366;-76
2021/11/17 14:59:57;;;;;;;;;;;4.90;99.90;;;;;;5090670;28;19914;-76
2021/11/17 15:02:23;;;;;;;;;;;4.90;99.90;;;;;;5084244;28;19908;-77
2021/11/17 15:04:49;;;;;;;;;;;4.90;99.90;;;;;;5084137;28;20278;-78
2021/11/17 15:07:14;;;;;;;;;;;4.80;99.90;;;;;;5090984;28;19908;-76
2021/11/17 15:09:40;;;;;;;;;;;4.70;99.90;;;;;;5084730;28;20015;-79
2021/11/17 15:12:08;;;;;;;;;;;4.60;99.90;;;;;;5088211;28;20012;-76
2021/11/17 15:14:36;;;;;;;;;;;4.60;99.90;;;;;;5089413;28;19919;-75
2021/11/17 15:17:02;;;;;;;;;;;4.70;99.90;;;;;;5090613;28;19931;-76
2021/11/17 15:19:27;;;;;;;;;;;4.60;99.90;;;;;;5072451;28;19909;-76
2021/11/17 15:21:55;;;;;;;;;;;4.30;99.90;;;;;;5090461;28;19995;-75
2021/11/17 15:24:21;;;;;;;;;;;4.10;99.90;;;;;;5090660;28;19912;-75
2021/11/17 15:26:48;;;;;;;;;;;4.10;99.90;;;;;;5090520;28;19942;-76
2021/11/17 15:29:13;;;;;;;;;;;4.20;99.90;;;;;;5090683;28;19912;-77
2021/11/17 15:31:39;;;;;;;;;;;4.20;99.90;;;;;;5090326;28;20560;-76
2021/11/17 15:34:05;;;;;;;;;;;4.20;99.90;;;;;;5072561;28;19916;-75
2021/11/17 15:36:31;;;;;;;;;;;4.30;99.90;;;;;;5090666;28;19912;-75
2021/11/17 15:38:56;;;;;;;;;;;4.30;99.90;;;;;;5088333;28;20397;-76
2021/11/17 15:41:23;;;;;;;;;;;4.40;99.90;;;;;;5083218;28;20301;-77
2021/11/17 15:43:49;;;;;;;;;;;4.40;99.90;;;;;;5090500;28;19953;-76
2021/11/17 15:46:15;;;;;;;;;;;4.40;99.90;;;;;;5090680;28;19912;-76
2021/11/17 15:48:40;;;;;;;;;;;4.40;99.90;;;;;;5076038;28;19954;-76
2021/11/17 15:51:08;;;;;;;;;;;4.40;99.90;;;;;;5084372;28;19908;-78
2021/11/17 15:53:34;;;;;;;;;;;4.40;99.90;;;;;;5093995;28;20072;-76
2021/11/17 15:56:00;;;;;;;;;;;4.50;99.90;;;;;;5094169;28;20141;-76
2021/11/17 15:58:26;;;;;;;;;;;4.50;99.90;;;;;;5094232;28;20275;-75
2021/11/17 16:00:51;;;;;;;;;;;4.40;99.90;;;;;;5093711;28;19908;-76
2021/11/17 16:03:17;;;;;;;;;;;4.40;99.90;;;;;;5094091;28;19912;-76
2021/11/17 16:05:44;;;;;;;;;;;4.40;99.90;;;;;;5093999;28;19912;-76
2021/11/17 16:08:10;;;;;;;;;;;4.40;99.90;;;;;;5092768;28;19908;-76
2021/11/17 16:10:35;;;;;;;;;;;4.40;99.90;;;;;;5087723;28;19916;-76
2021/11/17 16:13:01;;;;;;;;;;;4.30;99.90;;;;;;5086918;28;20017;-76
2021/11/17 16:15:28;;;;;;;;;;;4.20;99.90;;;;;;5089215;28;19908;-76
2021/11/17 16:17:55;;;;;;;;;;;4.20;99.90;;;;;;5093686;28;19946;-78
2021/11/17 16:20:23;;;;;;;;;;;4.20;99.90;;;;;;5088410;28;19948;-76
2021/11/17 16:25:34;;;;;;;;;;;4.10;99.90;;;;;;5093762;28;19912;-76
2021/11/17 16:28:06;;;;;;;;;;;3.90;99.90;;;;;;5093914;28;20281;-76
2021/11/17 16:30:31;;;;;;;;;;;3.90;99.90;;;;;;5093134;28;20064;-76
2021/11/17 16:32:57;;;;;;;;;;;3.90;99.90;;;;;;5093351;28;19913;-78
2021/11/17 16:35:23;;;;;;;;;;;4.00;99.90;;;;;;5093364;28;19962;-76
2021/11/17 16:37:50;;;;;;;;;;;4.00;99.90;;;;;;5093380;28;19908;-76
2021/11/17 16:40:16;;;;;;;;;;;4.10;99.90;;;;;;5081761;28;19914;-76
2021/11/17 16:42:41;;;;;;;;;;;4.20;99.90;;;;;;5090497;28;19999;-77
2021/11/17 16:45:08;;;;;;;;;;;4.20;99.90;;;;;;5075255;28;19931;-75
2021/11/17 16:47:33;;;;;;;;;;;4.30;99.90;;;;;;5093216;28;20353;-77
2021/11/17 16:49:59;;;;;;;;;;;4.30;99.90;;;;;;5092802;28;19915;-76
2021/11/17 16:52:29;;;;;;;;;;;4.30;99.90;;;;;;5091404;28;19955;-76
2021/11/17 16:54:58;;;;;;;;;;;4.30;99.90;;;;;;5091076;28;19977;-76
2021/11/17 16:57:24;;;;;;;;;;;4.20;99.90;;;;;;5092322;28;19920;-77
2021/11/17 16:59:50;;;;;;;;;;;4.30;99.90;;;;;;5092592;28;19909;-76
2021/11/17 17:02:16;;;;;;;;;;;4.20;99.90;;;;;;5092873;28;19934;-78
2021/11/17 17:04:42;;;;;;;;;;;4.20;99.90;;;;;;5092637;28;19922;-78
2021/11/17 17:07:09;;;;;;;;;;;4.30;99.90;;;;;;5092652;28;19919;-78
2021/11/17 17:09:35;;;;;;;;;;;4.20;99.90;;;;;;5090270;28;19912;-76
2021/11/17 17:12:00;;;;;;;;;;;4.20;99.90;;;;;;5087253;28;20384;-76
2021/11/17 17:14:26;;;;;;;;;;;4.20;99.90;;;;;;5092725;28;19947;-78
2021/11/17 17:16:51;;;;;;;;;;;4.20;99.90;;;;;;5092638;28;19923;-76
2021/11/17 17:19:17;;;;;;;;;;;4.30;99.90;;;;;;5092440;28;20011;-76